Nespelem, WA (99155)

8:58 PM PST on March 06, 2015 (GMT -0800)
RAWS KRAMER WA US | Change Station
CLOSE
Current Station
Personal Weather Station
Location: Okanogan, WA
Elevation: 2720 ft
Nearby Weather Stations

Elev 2720 ft 48.26 °N, 119.52 °W | Updated 50 minutes ago

Partly Cloudy
Partly Cloudy
40 °F
Feels Like 37 °F
N
4
Wind Variable Wind from NE
Gusts 5.0 mph

Today
High -- | Low -- °F
--% Chance of Precip.
Yesterday
High -- | Low -- °F
Precip. -- in
6:28 AM 5:48 PM
Full, 98% visible
Pressure 30.35 in
Visibility 10.0 miles
Clouds Clear
Windchill 37 °F
Dew Point 26 °F
Humidity 58%
Rainfall in
Snow Depth Not available.
UV 0 out of 12
Pollen 5.60 out of 12
Air Quality Not available.
Flu Activity Not available.
METAR KOMK 070453Z AUTO 30003KT 10SM CLR 04/M01 A3032 RMK AO2 SLP276 T00391011

More Conditions Fewer Conditions

Pressure 30.35 in
Visibility 10.0 miles
Clouds Clear
Windchill 37 °F
Dew Point 26 °F
Humidity 58%
Rainfall in
Snow Depth Not available.
UV 0 out of 12
Pollen 5.60 out of 12
Air Quality Not available.
Flu Activity Not available.
METAR KOMK 070453Z AUTO 30003KT 10SM CLR 04/M01 A3032 RMK AO2 SLP276 T00391011

More Conditions Fewer Conditions

10-Day Weather Forecast

Almanac

Astronomy

Mar. 06, 2015 Rise Set
Actual Time
Civil Twilight
Nautical Twilight
Astronomical Twilight
Moon
Length of Visible Light
Length of Day
Tomorrow will be .
, % of the Moon is Illuminated

Today's Extremes

State Highs State Lows

Community

WunderPhotos

Upload Photos

1,803,548 photos uploaded!

WunderBlogs® & News

Nearby

Air Quality

  Air Quality AQ Index Pollutant
Not available.

Snow Depth

Station Depth Elevation

Earthquake Activity

City Distance Mag. Time & Date
Minimum magnitude displayed is 2.5.

Coastal Water Temperatures

Place Temperature

Nearby Weather Stations